Time;durP1;ratioP1;P1;durP2;ratioP2;P2;SDS_P1;SDS_P2;PMS_P1;PMS_P2;Temp;Humidity;BMP_temperature;BMP_pressure;BME280_temperature;BME280_humidity;BME280_pressure;Samples;Min_cycle;Max_cycle;Signal;HPM_P1;HPM_P2
2022/09/25 00:00:15;;;;;;;3.85;3.55;;;;;;;10.10;71.20;100545.88;462985;114;928016;-77
2022/09/25 00:01:18;;;;;;;3.52;2.99;;;;;;;10.10;71.17;100541.27;463026;114;928940;-77
2022/09/25 00:02:22;;;;;;;3.52;3.26;;;;;;;10.10;71.20;100545.88;463030;114;922593;-77
2022/09/25 00:03:27;;;;;;;3.23;3.03;;;;;;;10.10;71.17;100554.05;463086;114;922432;-78
2022/09/25 00:04:31;;;;;;;3.52;3.32;;;;;;;10.09;71.19;100545.05;462864;114;922999;-78
2022/09/25 00:05:39;;;;;;;3.41;3.21;;;;;;;10.09;71.17;100545.05;462984;114;922438;-78
2022/09/25 00:06:42;;;;;;;3.33;2.89;;;;;;;10.08;71.16;100542.55;462870;114;922534;-78
2022/09/25 00:07:44;;;;;;;3.50;3.09;;;;;;;10.08;71.21;100551.56;463037;114;922587;-77
2022/09/25 00:08:48;;;;;;;3.69;3.46;;;;;;;10.08;71.25;100543.39;463078;114;922525;-78
2022/09/25 00:09:50;;;;;;;3.94;3.33;;;;;;;10.09;71.26;100541.52;463013;114;922619;-79
2022/09/25 00:10:54;;;;;;;3.80;3.58;;;;;;;10.09;71.32;100539.59;463030;114;922734;-79
2022/09/25 00:11:57;;;;;;;4.33;3.96;;;;;;;10.10;71.33;100538.55;463071;114;922538;-78
2022/09/25 00:13:00;;;;;;;4.03;3.73;;;;;;;10.11;71.30;100547.56;463055;114;922927;-78
2022/09/25 00:14:03;;;;;;;3.83;3.58;;;;;;;10.12;71.33;100541.91;463047;114;922535;-79
2022/09/25 00:15:07;;;;;;;4.41;4.09;;;;;;;10.12;71.36;100536.46;463087;114;923023;-77
2022/09/25 00:16:12;;;;;;;4.34;3.94;;;;;;;10.14;71.34;100548.00;462946;114;922697;-76
2022/09/25 00:17:15;;;;;;;4.09;3.79;;;;;;;10.16;71.39;100545.03;462836;114;922549;-76
2022/09/25 00:20:53;;;;;;;5.12;4.82;;;;;;;10.20;71.38;100546.34;462337;114;922657;-77
2022/09/25 00:21:56;;;;;;;4.99;4.59;;;;;;;10.20;71.33;100549.88;462080;114;922535;-78
2022/09/25 00:23:01;;;;;;;4.61;4.29;;;;;;;10.22;71.32;100546.94;463075;114;922519;-78
2022/09/25 00:24:07;;;;;;;4.58;4.28;;;;;;;10.22;71.32;100553.23;462906;114;922953;-77
2022/09/25 00:25:13;;;;;;;5.13;4.63;;;;;;;10.23;71.33;100545.90;462884;114;923159;-78
2022/09/25 00:26:16;;;;;;;5.19;4.76;;;;;;;10.24;71.26;100553.03;462886;114;922852;-77
2022/09/25 00:27:19;;;;;;;5.03;4.73;;;;;;;10.25;71.29;100550.09;463087;114;922998;-77
2022/09/25 00:28:22;;;;;;;5.03;4.69;;;;;;;10.25;71.22;100541.09;463089;114;922912;-77
2022/09/25 00:29:26;;;;;;;5.04;4.74;;;;;;;10.27;71.15;100545.25;463074;114;923384;-76
2022/09/25 00:30:29;;;;;;;5.18;4.84;;;;;;;10.25;71.10;100549.27;465418;114;923303;-77
2022/09/25 00:31:32;;;;;;;4.54;4.24;;;;;;;10.24;71.11;100550.30;464163;113;923061;-78
2022/09/25 00:32:36;;;;;;;5.31;4.91;;;;;;;10.23;71.17;100544.02;463088;114;922947;-77
2022/09/25 00:33:39;;;;;;;5.64;5.03;;;;;;;10.22;71.15;100545.06;463229;114;930447;-79
2022/09/25 00:34:42;;;;;;;5.33;4.89;;;;;;;10.22;71.08;100550.52;465583;113;923531;-80
2022/09/25 00:35:45;;;;;;;5.09;4.58;;;;;;;10.22;71.12;100545.06;465559;114;922517;-77
2022/09/25 00:36:48;;;;;;;4.97;4.67;;;;;;;10.21;71.05;100551.55;465464;114;922559;-77
2022/09/25 00:37:51;;;;;;;4.94;4.54;;;;;;;10.21;71.05;100548.83;465506;114;922533;-77
2022/09/25 00:38:54;;;;;;;5.06;4.69;;;;;;;10.19;71.04;100548.23;465524;113;922630;-78
2022/09/25 00:39:57;;;;;;;4.67;4.37;;;;;;;10.20;71.05;100547.15;465512;114;922572;-78
2022/09/25 00:41:01;;;;;;;5.17;4.87;;;;;;;10.20;71.05;100543.62;464830;114;922549;-77
2022/09/25 00:42:04;;;;;;;5.03;4.69;;;;;;;10.19;71.15;100548.23;462937;114;923475;-77
2022/09/25 00:43:15;;;;;;;5.08;4.78;;;;;;;10.19;71.11;100548.23;462967;114;930503;-78
2022/09/25 00:44:56;;;;;;;4.79;4.49;;;;;;;10.19;71.00;100550.11;462870;114;922910;-77
2022/09/25 00:46:01;;;;;;;5.06;4.76;;;;;;;10.18;70.98;100548.43;462858;114;923111;-78
2022/09/25 00:47:04;;;;;;;5.07;4.72;;;;;;;10.13;71.06;100551.77;462886;114;922976;-77
2022/09/25 00:48:11;;;;;;;5.26;4.82;;;;;;;10.11;71.06;100558.46;463030;114;922472;-76
2022/09/25 00:49:16;;;;;;;5.02;4.53;;;;;;;10.10;71.15;100556.78;453796;116;923068;-78
2022/09/25 00:50:44;;;;;;;4.61;4.31;;;;;;;10.09;71.26;100561.39;454506;114;922574;-77
2022/09/25 00:52:05;;;;;;;4.95;4.59;;;;;;;10.20;71.27;100560.77;476884;110;946847;-77
2022/09/25 00:53:26;;;;;;;4.65;4.36;;;;;;;10.09;71.27;100564.11;466384;113;922721;-77
2022/09/25 00:54:38;;;;;;;5.31;4.91;;;;;;;10.09;71.33;100558.66;466416;113;922531;-77
2022/09/25 00:55:43;;;;;;;5.12;4.72;;;;;;;10.09;71.35;100564.11;464480;113;922902;-77
2022/09/25 00:56:49;;;;;;;4.58;4.28;;;;;;;10.09;71.44;100558.66;458246;115;922550;-77
2022/09/25 00:57:55;;;;;;;4.56;4.26;;;;;;;10.09;71.34;100564.11;458236;115;922929;-77
2022/09/25 00:58:58;;;;;;;4.82;4.52;;;;;;;10.10;71.33;100563.07;458242;115;922523;-78
2022/09/25 01:00:06;;;;;;;4.67;4.35;;;;;;;10.10;71.33;100563.07;458339;115;922480;-77
2022/09/25 01:01:09;;;;;;;4.73;4.43;;;;;;;10.11;71.33;100556.58;458187;113;923083;-79
2022/09/25 01:02:28;;;;;;;4.72;4.42;;;;;;;10.10;71.31;100560.34;458379;115;922646;-79
2022/09/25 01:03:32;;;;;;;5.02;4.62;;;;;;;10.11;71.26;100562.02;458154;115;924924;-78
2022/09/25 01:04:37;;;;;;;5.34;4.78;;;;;;;10.10;71.23;100560.34;458246;115;922488;-79
2022/09/25 01:05:43;;;;;;;4.90;4.59;;;;;;;10.09;71.35;100561.39;458313;113;923007;-79
2022/09/25 01:06:45;;;;;;;4.39;4.09;;;;;;;10.08;71.26;100559.73;458141;115;930460;-79
2022/09/25 01:07:49;;;;;;;4.69;4.38;;;;;;;10.09;71.26;100558.66;458459;115;923032;-79
2022/09/25 01:08:54;;;;;;;5.60;4.85;;;;;;;10.08;71.27;100559.73;458418;115;922608;-78
2022/09/25 01:09:58;;;;;;;4.99;4.66;;;;;;;10.08;71.24;100559.73;458343;115;922573;-79
2022/09/25 01:11:01;;;;;;;4.57;4.29;;;;;;;10.04;71.21;100556.58;458280;113;930613;-78
2022/09/25 01:12:04;;;;;;;4.57;4.26;;;;;;;10.04;71.22;100556.58;458432;115;923047;-78
2022/09/25 01:13:08;;;;;;;4.92;4.61;;;;;;;10.04;71.27;100556.58;458421;115;922476;-78
2022/09/25 01:14:16;;;;;;;4.76;4.44;;;;;;;10.04;71.27;100553.02;458372;115;922485;-79
2022/09/25 01:15:20;;;;;;;4.33;4.03;;;;;;;10.03;71.22;100559.55;458035;115;930546;-79
2022/09/25 01:16:53;;;;;;;4.91;4.51;;;;;;;10.02;71.26;100555.98;449368;118;922553;-78
2022/09/25 01:18:00;;;;;;;4.48;4.18;;;;;;;10.01;71.28;100557.02;433811;122;923038;-78
2022/09/25 01:19:27;;;;;;;4.23;3.94;;;;;;;10.00;71.41;100557.22;449390;118;923054;-77
2022/09/25 01:20:55;;;;;;;5.26;4.92;;;;;;;10.00;71.38;100557.22;448014;118;922806;-77
2022/09/25 01:22:10;;;;;;;4.40;4.08;;;;;;;9.99;71.42;100550.09;449167;118;923179;-77
2022/09/25 01:23:31;;;;;;;4.94;4.62;;;;;;;9.97;71.55;100557.66;448962;118;922886;-77
2022/09/25 01:24:42;;;;;;;;;;;;;;;9.95;71.56;100555.14;451635;118;922135;-78
2022/09/25 01:25:53;;;;;;;4.66;4.27;;;;;;;9.94;71.56;100556.19;449321;118;922430;-78
2022/09/25 01:27:26;;;;;;;4.17;3.77;;;;;;;9.90;71.65;100554.09;448482;118;923248;-78
2022/09/25 01:29:07;;;;;;;4.56;4.15;;;;;;;9.89;71.74;100555.14;449367;118;922637;-78
2022/09/25 01:30:14;;;;;;;4.89;4.49;;;;;;;9.86;71.78;100550.97;453050;116;922501;-79
2022/09/25 01:31:21;;;;;;;10.28;4.03;;;;;;;9.85;71.91;100551.17;455656;114;922522;-78
2022/09/25 01:32:56;;;;;;;4.71;4.29;;;;;;;9.84;71.86;100552.22;456528;115;922626;-78
2022/09/25 01:34:06;;;;;;;4.89;4.49;;;;;;;9.82;71.92;100546.97;457278;116;923150;-79
2022/09/25 01:35:24;;;;;;;5.02;4.63;;;;;;;9.82;71.98;100554.30;452113;117;922732;-76
2022/09/25 01:36:36;;;;;;;5.37;4.07;;;;;;;9.82;71.99;100548.85;456774;115;922614;-79
2022/09/25 01:38:18;;;;;;;4.52;4.20;;;;;;;9.81;72.01;100539.03;457280;116;922468;-78
2022/09/25 01:39:31;;;;;;;4.47;3.99;;;;;;;9.81;72.11;100553.48;457250;116;922942;-78
2022/09/25 01:40:41;;;;;;;4.23;3.91;;;;;;;9.79;72.10;100549.29;457266;116;922996;-79
2022/09/25 01:41:57;;;;;;;4.68;4.37;;;;;;;9.78;72.06;100544.88;457240;115;922801;-78
2022/09/25 01:43:07;;;;;;;4.60;4.01;;;;;;;9.77;72.06;100546.77;457296;116;923402;-78
2022/09/25 01:44:13;;;;;;;4.69;4.30;;;;;;;9.78;72.11;100547.61;457230;116;922659;-78
2022/09/25 01:45:28;;;;;;;4.72;4.33;;;;;;;9.75;72.11;100548.88;456938;115;922680;-78
2022/09/25 01:46:35;;;;;;;4.62;4.23;;;;;;;9.76;72.06;100549.72;453929;116;923002;-78
2022/09/25 01:47:38;;;;;;;8.21;4.27;;;;;;;9.74;72.15;100546.36;457219;116;922913;-77
2022/09/25 01:48:44;;;;;;;5.33;4.89;;;;;;;9.73;72.23;100548.24;457345;115;922449;-78
2022/09/25 01:49:51;;;;;;;4.62;4.32;;;;;;;9.75;72.15;100545.31;457281;116;922851;-78
2022/09/25 01:51:07;;;;;;;4.58;4.24;;;;;;;9.76;72.18;100547.81;457254;116;922506;-78
2022/09/25 01:52:13;;;;;;;4.77;4.47;;;;;;;9.77;72.17;100545.92;456917;114;922827;-77
2022/09/25 01:53:22;;;;;;;4.38;3.98;;;;;;;9.77;72.18;100552.21;456986;116;922848;-77
2022/09/25 01:54:38;;;;;;;4.42;4.06;;;;;;;9.77;72.14;100549.49;457004;116;922610;-78
2022/09/25 01:55:45;;;;;;;3.92;3.62;;;;;;;9.77;72.08;100552.21;457007;116;922689;-78
2022/09/25 01:57:10;;;;;;;4.49;4.08;;;;;;;9.77;72.09;100551.38;456951;115;922599;-78
2022/09/25 01:58:19;;;;;;;4.37;4.07;;;;;;;9.77;72.12;100545.92;456950;116;922509;-78
2022/09/25 01:59:28;;;;;;;4.82;4.38;;;;;;;9.75;72.11;100553.48;446829;118;923390;-78
2022/09/25 02:00:43;;;;;;;4.86;4.47;;;;;;;9.85;72.12;100551.17;475214;110;947003;-78
2022/09/25 02:01:46;;;;;;;5.59;4.49;;;;;;;9.73;72.05;100550.13;457249;115;922538;-79
2022/09/25 02:03:02;;;;;;;4.84;4.18;;;;;;;9.72;72.15;100552.01;457338;115;923297;-78
2022/09/25 02:04:11;;;;;;;5.01;4.52;;;;;;;9.71;72.17;100550.33;456606;115;923191;-78
2022/09/25 02:05:30;;;;;;;4.84;4.44;;;;;;;9.72;72.12;100545.72;457269;116;923089;-80
2022/09/25 02:06:37;;;;;;;5.19;4.70;;;;;;;9.73;72.15;100558.30;456683;115;922475;-78
2022/09/25 02:07:43;;;;;;;4.59;3.82;;;;;;;9.72;72.24;100549.28;457195;116;922553;-79
2022/09/25 02:08:51;;;;;;;5.08;4.62;;;;;;;9.72;72.13;100545.72;457264;116;922980;-78
2022/09/25 02:09:57;;;;;;;4.44;4.05;;;;;;;9.71;72.17;100553.05;457257;116;922914;-79
2022/09/25 02:11:03;;;;;;;4.56;4.11;;;;;;;9.71;72.11;100542.16;456933;114;922615;-79
2022/09/25 02:12:09;;;;;;;4.58;4.21;;;;;;;9.72;72.08;100553.89;457283;116;922521;-78
2022/09/25 02:13:16;;;;;;;4.37;4.07;;;;;;;9.72;72.07;100548.44;457235;116;922947;-78
2022/09/25 02:14:28;;;;;;;5.52;4.93;;;;;;;9.73;72.13;100547.41;457260;116;923025;-79
2022/09/25 02:15:35;;;;;;;3.83;3.53;;;;;;;9.73;72.09;100550.13;457128;115;923092;-79
2022/09/25 02:16:43;;;;;;;4.27;3.96;;;;;;;9.72;72.00;100553.89;457612;115;922560;-79
2022/09/25 02:20:41;;;;;;;4.74;4.36;;;;;;;9.69;72.04;100548.87;458146;115;922444;-79
2022/09/25 02:21:50;;;;;;;4.51;4.11;;;;;;;9.68;72.12;100550.77;458206;115;922485;-79
2022/09/25 02:22:56;;;;;;;4.47;4.13;;;;;;;9.68;72.13;100547.20;452818;115;923103;-79
2022/09/25 02:24:11;;;;;;;4.46;3.78;;;;;;;9.67;72.14;100545.52;458220;115;923032;-79
2022/09/25 02:25:36;;;;;;;4.24;3.57;;;;;;;9.68;72.17;100552.64;450459;117;923345;-79
2022/09/25 02:26:39;;;;;;;4.28;3.83;;;;;;;9.68;72.13;100555.36;458219;115;922603;-78
2022/09/25 02:27:42;;;;;;;3.80;3.50;;;;;;;9.67;72.17;100556.41;458393;115;923009;-79
2022/09/25 02:28:45;;;;;;;4.39;4.06;;;;;;;9.66;72.16;100554.72;458378;115;923044;-78
2022/09/25 02:29:49;;;;;;;3.84;3.52;;;;;;;9.65;72.23;100559.33;456936;115;922659;-79
2022/09/25 02:30:55;;;;;;;3.91;3.63;;;;;;;9.65;72.17;100559.33;452965;117;922645;-79
2022/09/25 02:32:05;;;;;;;4.04;3.74;;;;;;;9.66;72.20;100565.61;449432;118;922936;-79
2022/09/25 02:33:08;;;;;;;4.61;3.71;;;;;;;9.65;72.11;100547.63;449462;118;922792;-79
2022/09/25 02:34:11;;;;;;;3.91;3.61;;;;;;;9.66;72.19;100561.01;452360;114;922896;-78
2022/09/25 02:35:17;;;;;;;3.58;3.28;;;;;;;9.66;72.13;100561.01;449394;117;922642;-79
2022/09/25 02:36:22;;;;;;;3.55;3.25;;;;;;;9.67;72.15;100564.58;449582;116;922473;-79
2022/09/25 02:37:26;;;;;;;3.65;3.35;;;;;;;9.67;72.11;100559.13;449460;118;922507;-79
2022/09/25 02:38:32;;;;;;;3.33;3.08;;;;;;;9.67;72.10;100556.41;449598;118;922541;-79
2022/09/25 02:39:35;;;;;;;3.29;3.07;;;;;;;9.68;72.11;100566.25;449404;118;930562;-78
2022/09/25 02:40:54;;;;;;;3.19;2.96;;;;;;;9.68;72.06;100563.53;449667;116;922450;-78
2022/09/25 02:42:00;;;;;;;3.86;3.12;;;;;;;9.66;72.01;100563.73;447598;117;922849;-78
2022/09/25 02:43:19;;;;;;;3.32;3.11;;;;;;;9.66;72.11;100563.73;449452;117;922624;-79
2022/09/25 02:45:06;;;;;;;3.74;3.43;;;;;;;9.76;72.17;100557.89;477010;110;946762;-80
2022/09/25 02:46:19;;;;;;;3.74;3.42;;;;;;;9.65;72.19;100561.24;449765;117;923148;-79
2022/09/25 02:47:45;;;;;;;3.79;3.21;;;;;;;9.65;72.19;100574.85;451772;117;923309;-79
2022/09/25 02:49:00;;;;;;;3.45;3.20;;;;;;;9.62;72.16;100568.77;451718;117;922655;-79
2022/09/25 02:50:28;;;;;;;3.33;3.12;;;;;;;9.59;72.14;100565.64;451230;117;922766;-79
2022/09/25 02:51:58;;;;;;;3.54;3.24;;;;;;;9.56;72.18;100566.88;454748;112;923283;-79
2022/09/25 02:53:23;;;;;;;2.99;2.81;;;;;;;9.52;72.25;100571.07;462112;114;922520;-80
2022/09/25 02:54:38;;;;;;;3.67;3.32;;;;;;;9.50;72.31;100572.31;462927;114;930500;-80
2022/09/25 02:55:45;;;;;;;3.16;2.83;;;;;;;9.46;72.49;100569.18;462994;114;922608;-79
2022/09/25 02:57:01;;;;;;;3.08;2.88;;;;;;;9.45;72.52;100567.50;457556;115;922982;-79
2022/09/25 02:58:12;;;;;;;3.13;2.93;;;;;;;9.45;72.50;100566.66;447284;114;922679;-76
2022/09/25 02:59:18;;;;;;;3.12;2.70;;;;;;;9.45;72.52;100577.55;463038;114;922637;-79
2022/09/25 03:00:22;;;;;;;3.70;3.23;;;;;;;9.45;72.53;100572.09;463042;114;922531;-77
2022/09/25 03:01:29;;;;;;;2.85;2.69;;;;;;;9.45;72.51;100575.66;463180;114;922550;-79
2022/09/25 03:02:34;;;;;;;3.01;2.41;;;;;;;9.46;72.51;100579.22;463023;114;922676;-79
2022/09/25 03:03:39;;;;;;;3.10;2.88;;;;;;;9.46;72.51;100577.34;462946;114;922718;-76
2022/09/25 03:04:46;;;;;;;2.78;2.58;;;;;;;9.46;72.51;100581.95;463084;114;922725;-79
2022/09/25 03:05:51;;;;;;;3.16;2.86;;;;;;;9.46;72.51;100581.95;462946;114;922484;-78
2022/09/25 03:06:56;;;;;;;3.34;3.02;;;;;;;9.45;72.49;100572.94;462944;114;922552;-78
2022/09/25 03:09:22;;;;;;;4.64;2.24;;;;;;;9.47;72.50;100579.03;462968;114;923077;-78
2022/09/25 03:10:26;;;;;;;3.73;3.43;;;;;;;9.48;72.51;100580.67;463104;114;922470;-79
2022/09/25 03:11:29;;;;;;;3.65;3.23;;;;;;;9.48;72.55;100580.67;463035;114;922492;-78
2022/09/25 03:12:37;;;;;;;4.22;3.80;;;;;;;9.48;72.46;100591.56;463130;114;922448;-78
2022/09/25 03:13:41;;;;;;;4.78;4.44;;;;;;;9.48;72.49;100583.39;462941;114;922611;-79
2022/09/25 03:14:44;;;;;;;5.01;4.54;;;;;;;9.49;72.53;100584.23;463110;114;922702;-77
2022/09/25 03:15:54;;;;;;;5.87;5.30;;;;;;;9.50;72.57;100589.48;463141;114;922659;-78
2022/09/25 03:17:01;;;;;;;4.94;4.52;;;;;;;9.50;72.57;100589.48;462913;114;923037;-77
2022/09/25 03:18:04;;;;;;;4.83;4.35;;;;;;;9.51;72.44;100582.16;462938;114;922992;-78
2022/09/25 03:19:07;;;;;;;4.47;3.85;;;;;;;9.52;72.43;100589.28;463141;114;923234;-77
2022/09/25 03:20:10;;;;;;;4.40;3.74;;;;;;;9.52;72.43;100584.69;463234;114;923091;-77
2022/09/25 03:21:13;;;;;;;4.08;3.78;;;;;;;9.52;72.46;100581.96;463210;114;923390;-78
2022/09/25 03:22:17;;;;;;;3.81;3.47;;;;;;;9.52;72.42;100584.69;463199;114;922962;-78
2022/09/25 03:23:23;;;;;;;3.72;3.40;;;;;;;9.53;72.36;100591.80;463005;114;922475;-75
2022/09/25 03:24:26;;;;;;;4.05;3.67;;;;;;;9.53;72.29;100583.64;463089;114;922786;-76
2022/09/25 03:25:29;;;;;;;3.36;2.94;;;;;;;9.52;72.30;100581.96;463117;114;930543;-76
2022/09/25 03:26:32;;;;;;;3.59;3.33;;;;;;;9.53;72.30;100588.24;463153;114;930446;-76
2022/09/25 03:27:35;;;;;;;10.72;3.51;;;;;;;9.52;72.28;100589.28;463205;114;922580;-76
2022/09/25 03:28:38;;;;;;;3.19;2.97;;;;;;;9.51;72.34;100584.88;463239;114;922488;-76
2022/09/25 03:29:42;;;;;;;3.69;3.39;;;;;;;9.51;72.38;100588.44;462950;114;922495;-76
2022/09/25 03:30:57;;;;;;;3.69;3.38;;;;;;;9.50;72.32;100581.31;461798;115;922695;-76
2022/09/25 03:32:00;;;;;;;3.93;3.54;;;;;;;9.50;72.28;100584.04;471301;112;922679;-78
2022/09/25 03:33:03;;;;;;;2.62;2.43;;;;;;;9.48;72.38;100583.39;471473;112;923111;-76
2022/09/25 03:34:06;;;;;;;3.86;3.55;;;;;;;9.47;72.42;100584.47;467107;112;922770;-79
2022/09/25 03:35:09;;;;;;;3.21;2.93;;;;;;;9.47;72.39;100584.47;463217;114;922521;-77
2022/09/25 03:36:19;;;;;;;4.01;2.59;;;;;;;9.47;72.36;100589.07;463247;114;922517;-78
2022/09/25 03:37:24;;;;;;;3.02;2.79;;;;;;;9.45;72.36;100591.99;462854;114;922574;-77
2022/09/25 03:38:27;;;;;;;4.44;3.24;;;;;;;9.44;72.37;100587.59;463012;114;922521;-78
2022/09/25 03:39:30;;;;;;;2.82;2.62;;;;;;;9.42;72.39;100583.41;463228;114;923063;-78
2022/09/25 03:40:33;;;;;;;3.71;3.42;;;;;;;9.40;72.44;100590.94;463175;114;923157;-75
2022/09/25 03:41:36;;;;;;;3.19;2.95;;;;;;;9.36;72.36;100589.68;463113;114;922506;-76
2022/09/25 03:42:39;;;;;;;2.96;2.74;;;;;;;9.36;72.36;100589.68;463197;114;930404;-78
2022/09/25 03:43:43;;;;;;;3.64;3.34;;;;;;;9.38;72.54;100585.69;463245;114;922553;-77
2022/09/25 03:44:46;;;;;;;3.07;2.87;;;;;;;9.38;72.50;100585.69;463649;112;922533;-77
2022/09/25 03:45:49;;;;;;;2.70;2.37;;;;;;;9.38;72.50;100584.85;463814;113;922485;-76
2022/09/25 03:46:52;;;;;;;2.81;2.61;;;;;;;9.39;72.53;100583.81;463774;114;922568;-76
2022/09/25 03:47:54;;;;;;;3.11;2.81;;;;;;;9.37;72.55;100592.17;463799;114;922572;-76
2022/09/25 03:48:58;;;;;;;2.70;2.44;;;;;;;9.38;72.58;100584.85;463786;114;922506;-77
2022/09/25 03:50:00;;;;;;;3.63;3.06;;;;;;;9.37;72.69;100586.73;463729;114;922635;-76
2022/09/25 03:51:04;;;;;;;2.89;2.59;;;;;;;9.37;72.60;100585.92;463756;114;922539;-78
2022/09/25 03:52:08;;;;;;;3.29;2.81;;;;;;;9.36;72.59;100590.52;463718;114;922401;-78
2022/09/25 03:53:11;;;;;;;3.78;3.02;;;;;;;9.38;72.62;100595.73;463623;114;922778;-77
2022/09/25 03:54:14;;;;;;;2.94;2.74;;;;;;;9.37;72.65;100597.61;463691;114;922849;-77
2022/09/25 03:55:17;;;;;;;3.56;3.26;;;;;;;9.38;72.66;100593.86;463651;114;922504;-78
2022/09/25 03:56:24;;;;;;;3.55;2.36;;;;;;;9.37;72.71;100597.61;463581;114;922884;-77
2022/09/25 03:57:26;;;;;;;2.92;2.65;;;;;;;9.36;72.61;100593.24;463455;114;930974;-77
2022/09/25 03:58:29;;;;;;;2.34;2.24;;;;;;;9.37;72.66;100588.64;463693;114;922576;-76
2022/09/25 03:59:32;;;;;;;2.88;2.41;;;;;;;9.38;72.78;100593.86;463643;114;922613;-76
2022/09/25 04:00:36;;;;;;;3.42;2.84;;;;;;;9.40;72.69;100593.66;454942;116;922636;-76
2022/09/25 04:01:39;;;;;;;3.40;2.54;;;;;;;9.41;72.69;100595.34;455293;114;922987;-77
2022/09/25 04:02:42;;;;;;;2.71;2.51;;;;;;;9.42;72.67;100591.58;463563;114;930284;-76
2022/09/25 04:03:46;;;;;;;2.78;2.58;;;;;;;9.42;72.65;100597.86;463650;114;922644;-75
2022/09/25 04:04:49;;;;;;;2.49;2.29;;;;;;;9.43;72.72;100599.52;463543;114;922531;-76
2022/09/25 04:05:52;;;;;;;2.63;2.43;;;;;;;9.43;72.62;100594.06;463679;114;922538;-76
2022/09/25 04:06:55;;;;;;;2.56;2.36;;;;;;;9.44;72.60;100592.19;463619;114;922553;-76
2022/09/25 04:08:00;;;;;;;2.76;2.56;;;;;;;9.44;72.67;100598.47;463550;114;922877;-76
2022/09/25 04:09:03;;;;;;;2.97;2.77;;;;;;;9.46;72.68;100603.72;463428;114;930293;-76
2022/09/25 04:11:18;;;;;;;3.11;2.86;;;;;;;9.58;72.66;100592.02;470156;110;947281;-77
2022/09/25 04:12:21;;;;;;;2.59;2.39;;;;;;;9.48;72.64;100599.73;458193;115;922792;-75
2022/09/25 04:13:25;;;;;;;2.34;2.24;;;;;;;9.51;72.65;100598.48;458256;115;922597;-76
2022/09/25 04:14:29;;;;;;;2.92;2.72;;;;;;;9.51;72.60;100601.21;457384;115;922794;-77
2022/09/25 04:15:32;;;;;;;3.11;2.80;;;;;;;9.51;72.62;100599.33;457344;115;922957;-75
2022/09/25 04:16:35;;;;;;;2.61;2.41;;;;;;;9.52;72.65;100594.73;457261;116;922929;-76
2022/09/25 04:17:38;;;;;;;2.15;2.01;;;;;;;9.52;72.58;100601.02;457310;116;930954;-75
2022/09/25 04:18:41;;;;;;;2.44;2.26;;;;;;;9.52;72.61;100598.29;457362;116;922648;-79
2022/09/25 04:19:45;;;;;;;2.76;2.56;;;;;;;9.53;72.63;100590.97;457294;116;922561;-76
2022/09/25 04:20:48;;;;;;;2.55;2.35;;;;;;;9.53;72.60;100594.53;457268;116;922509;-77
2022/09/25 04:21:52;;;;;;;3.69;2.61;;;;;;;9.55;72.62;100588.86;457274;116;922543;-76
2022/09/25 04:22:55;;;;;;;2.39;2.20;;;;;;;9.55;72.66;100589.69;457315;116;930660;-76
2022/09/25 04:25:24;;;;;;;2.11;1.97;;;;;;;9.58;72.58;100583.02;457202;116;923003;-77
2022/09/25 04:26:26;;;;;;;3.40;2.94;;;;;;;9.59;72.60;100587.41;457209;116;922983;-75
2022/09/25 04:27:29;;;;;;;2.39;2.21;;;;;;;9.59;72.65;100593.67;457509;116;922318;-76
2022/09/25 04:28:32;;;;;;;2.66;2.46;;;;;;;9.60;72.68;100595.34;457506;116;922912;-77
2022/09/25 04:29:35;;;;;;;2.89;2.62;;;;;;;9.62;72.70;100604.16;457268;116;922970;-77
2022/09/25 04:30:38;;;;;;;2.97;2.54;;;;;;;9.65;72.68;100599.36;454173;116;922497;-77
2022/09/25 04:31:41;;;;;;;2.59;2.34;;;;;;;9.66;72.74;100603.73;456617;116;923000;-77
2022/09/25 04:34:05;;;;;;;2.72;2.52;;;;;;;9.69;72.80;100611.50;453312;114;923084;-76
2022/09/25 04:35:08;;;;;;;3.03;2.73;;;;;;;9.73;72.84;100604.58;449673;118;922576;-76
2022/09/25 04:36:13;;;;;;;2.77;2.37;;;;;;;9.74;72.87;100604.38;449569;116;922716;-76
2022/09/25 04:37:16;;;;;;;2.80;2.36;;;;;;;9.76;72.87;100593.29;449539;117;930375;-77
2022/09/25 04:38:19;;;;;;;2.55;2.35;;;;;;;9.78;72.86;100602.06;449664;117;922462;-76
2022/09/25 04:39:22;;;;;;;2.74;2.55;;;;;;;9.81;72.90;100598.94;449623;117;922733;-76
2022/09/25 04:40:25;;;;;;;2.48;2.28;;;;;;;9.83;72.89;100600.39;449695;117;922638;-76
2022/09/25 04:41:28;;;;;;;2.82;2.28;;;;;;;9.86;72.93;100596.42;449585;117;922473;-76
2022/09/25 04:42:31;;;;;;;2.38;2.11;;;;;;;9.89;72.97;100588.66;449670;117;923137;-76
2022/09/25 04:43:34;;;;;;;2.89;2.69;;;;;;;9.93;73.00;100587.19;449664;117;922558;-77
2022/09/25 04:44:37;;;;;;;2.21;2.11;;;;;;;9.97;72.89;100588.47;449666;117;923009;-76
2022/09/25 04:45:41;;;;;;;2.76;2.37;;;;;;;10.02;72.83;100593.27;449627;116;922560;-76
2022/09/25 04:46:43;;;;;;;2.64;2.44;;;;;;;10.04;72.77;100589.27;449687;118;922523;-76
2022/09/25 04:47:46;;;;;;;2.14;2.04;;;;;;;10.08;72.66;100586.98;449656;118;922910;-76
2022/09/25 04:48:49;;;;;;;2.42;2.22;;;;;;;10.09;72.69;100588.63;449708;118;922655;-76
2022/09/25 04:49:53;;;;;;;2.84;2.64;;;;;;;10.12;72.62;100593.67;449654;117;922503;-76
2022/09/25 04:50:57;;;;;;;2.13;2.03;;;;;;;10.14;72.65;100585.30;449582;116;922809;-76
2022/09/25 04:52:00;;;;;;;3.57;2.39;;;;;;;10.17;72.65;100587.62;450791;116;922953;-76
2022/09/25 04:53:03;;;;;;;2.54;2.34;;;;;;;10.19;72.58;100589.09;457476;116;922495;-77
2022/09/25 04:54:06;;;;;;;3.05;2.51;;;;;;;10.21;72.61;100586.98;457430;115;922539;-76
2022/09/25 04:55:09;;;;;;;3.24;3.04;;;;;;;10.23;72.46;100584.89;457463;115;922934;-75
2022/09/25 04:56:13;;;;;;;2.88;2.67;;;;;;;10.26;72.52;100575.44;457360;114;922544;-78
2022/09/25 04:57:20;;;;;;;2.48;2.28;;;;;;;10.27;72.36;100591.58;457196;116;922943;-76
2022/09/25 04:58:25;;;;;;;2.98;2.71;;;;;;;10.27;72.42;100597.03;455011;116;922556;-76
2022/09/25 04:59:28;;;;;;;3.49;2.62;;;;;;;10.29;72.25;100583.20;457440;116;922702;-76
2022/09/25 05:00:31;;;;;;;3.39;2.58;;;;;;;10.29;72.17;100585.92;457444;114;922846;-76
2022/09/25 05:01:34;;;;;;;3.40;2.69;;;;;;;10.28;72.22;100586.97;457415;115;923026;-76
2022/09/25 05:02:37;;;;;;;2.97;2.61;;;;;;;10.27;72.23;100588.02;457490;115;922800;-77
2022/09/25 05:03:41;;;;;;;2.74;2.54;;;;;;;10.28;72.19;100585.09;457472;115;922599;-78
2022/09/25 05:04:44;;;;;;;2.66;2.46;;;;;;;10.29;72.16;100592.22;457360;115;923034;-75
2022/09/25 05:05:48;;;;;;;2.19;2.01;;;;;;;10.31;72.13;100579.20;457384;114;922499;-77
2022/09/25 05:06:51;;;;;;;2.92;2.65;;;;;;;10.33;72.21;100598.91;457363;115;922974;-77
2022/09/25 05:07:56;;;;;;;3.34;2.40;;;;;;;10.36;72.09;100598.50;457523;116;922660;-76
2022/09/25 05:08:59;;;;;;;3.77;2.45;;;;;;;10.37;72.05;100591.13;457287;116;922515;-76
2022/09/25 05:10:02;;;;;;;2.58;2.37;;;;;;;10.39;72.07;100592.61;457556;115;922560;-76
2022/09/25 05:11:06;;;;;;;2.36;2.16;;;;;;;10.42;72.08;100585.87;457450;114;922740;-76
2022/09/25 05:12:09;;;;;;;3.36;2.60;;;;;;;10.48;72.16;100595.09;457378;115;923256;-76
2022/09/25 05:13:12;;;;;;;2.59;2.27;;;;;;;10.54;72.12;100597.80;457474;115;922540;-76
2022/09/25 05:14:15;;;;;;;2.44;2.22;;;;;;;10.60;72.00;100601.56;457435;116;923354;-76
2022/09/25 05:15:19;;;;;;;3.41;3.11;;;;;;;10.64;71.97;100592.73;457435;115;922528;-76
2022/09/25 05:16:22;;;;;;;2.86;2.55;;;;;;;10.68;71.88;100602.18;457259;116;923018;-76
2022/09/25 05:17:25;;;;;;;2.91;2.71;;;;;;;10.73;71.84;100606.98;457379;116;922462;-77
2022/09/25 05:18:28;;;;;;;3.17;2.49;;;;;;;10.77;71.78;100605.49;457381;116;922508;-75
2022/09/25 05:19:31;;;;;;;2.58;2.37;;;;;;;10.80;71.64;100597.73;457367;116;922562;-76
2022/09/25 05:20:37;;;;;;;3.45;2.79;;;;;;;10.86;71.48;100596.03;457306;116;922972;-75